sensor_id;sensor_type;location;lat;lon;timestamp;pressure;altitude;pressure_sealevel;temperature;humidity
62980;BME280;49075;53.988;27.678;2023-05-16T00:01:25;983.2;;;15.1;43.9
62980;BME280;49075;53.988;27.678;2023-05-16T00:06:25;983.2;;;15.1;44
62980;BME280;49075;53.988;27.678;2023-05-16T00:11:25;983.1;;;15.1;43.8
62980;BME280;49075;53.988;27.678;2023-05-16T00:16:25;983.1;;;15;44.2
62980;BME280;49075;53.988;27.678;2023-05-16T00:21:25;982.9;;;15.2;43.6
62980;BME280;49075;53.988;27.678;2023-05-16T00:26:37;983;;;15;44.2
62980;BME280;49075;53.988;27.678;2023-05-16T00:31:25;983;;;15;44.1
62980;BME280;49075;53.988;27.678;2023-05-16T00:36:25;983;;;14.9;44.5
62980;BME280;49075;53.988;27.678;2023-05-16T00:41:39;983;;;14.9;44.5
62980;BME280;49075;53.988;27.678;2023-05-16T00:46:43;983;;;14.8;44.6
62980;BME280;49075;53.988;27.678;2023-05-16T00:51:57;983;;;14.8;44.6
62980;BME280;49075;53.988;27.678;2023-05-16T00:56:35;983;;;14.8;44.7
62980;BME280;49075;53.988;27.678;2023-05-16T01:01:25;983;;;14.9;44.4
62980;BME280;49075;53.988;27.678;2023-05-16T01:06:25;983;;;14.9;44.3
62980;BME280;49075;53.988;27.678;2023-05-16T01:11:50;982.9;;;14.8;44.5
62980;BME280;49075;53.988;27.678;2023-05-16T01:16:26;982.9;;;14.8;44.7
62980;BME280;49075;53.988;27.678;2023-05-16T01:21:35;982.9;;;14.7;44.9
62980;BME280;49075;53.988;27.678;2023-05-16T01:26:39;982.8;;;14.6;45.1
62980;BME280;49075;53.988;27.678;2023-05-16T01:31:25;982.8;;;14.7;44.9
62980;BME280;49075;53.988;27.678;2023-05-16T01:36:37;982.8;;;14.6;45.2
62980;BME280;49075;53.988;27.678;2023-05-16T01:41:26;982.7;;;14.6;45.3
62980;BME280;49075;53.988;27.678;2023-05-16T01:46:26;982.7;;;14.5;45.5
62980;BME280;49075;53.988;27.678;2023-05-16T01:51:50;982.6;;;14.6;45.7
62980;BME280;49075;53.988;27.678;2023-05-16T01:56:52;982.7;;;14.5;45.6
62980;BME280;49075;53.988;27.678;2023-05-16T02:01:37;982.7;;;14.5;45.9
62980;BME280;49075;53.988;27.678;2023-05-16T02:07:13;982.6;;;14.5;45.7
62980;BME280;49075;53.988;27.678;2023-05-16T02:11:49;982.6;;;14.3;46.4
62980;BME280;49075;53.988;27.678;2023-05-16T02:16:25;982.7;;;14.3;46.3
62980;BME280;49075;53.988;27.678;2023-05-16T02:21:47;982.7;;;14.2;46.6
62980;BME280;49075;53.988;27.678;2023-05-16T02:26:37;982.7;;;14.3;46.2
62980;BME280;49075;53.988;27.678;2023-05-16T02:31:45;982.7;;;14.3;46.4
62980;BME280;49075;53.988;27.678;2023-05-16T02:36:25;982.7;;;14.3;46.4
62980;BME280;49075;53.988;27.678;2023-05-16T02:41:37;982.9;;;14.2;46.9
62980;BME280;49075;53.988;27.678;2023-05-16T02:46:32;982.8;;;14.2;47
62980;BME280;49075;53.988;27.678;2023-05-16T02:51:39;982.8;;;14.2;47.7
62980;BME280;49075;53.988;27.678;2023-05-16T02:56:37;982.8;;;14.1;47.9
62980;BME280;49075;53.988;27.678;2023-05-16T03:01:31;982.8;;;14;48.4
62980;BME280;49075;53.988;27.678;2023-05-16T03:06:39;982.8;;;14;48.5
62980;BME280;49075;53.988;27.678;2023-05-16T03:11:25;982.8;;;13.8;49.3
62980;BME280;49075;53.988;27.678;2023-05-16T03:16:35;982.7;;;13.7;50
62980;BME280;49075;53.988;27.678;2023-05-16T03:21:39;982.5;;;13.6;50.4
62980;BME280;49075;53.988;27.678;2023-05-16T03:26:37;982.5;;;13.7;49.9
62980;BME280;49075;53.988;27.678;2023-05-16T03:31:35;982.4;;;13.5;51
62980;BME280;49075;53.988;27.678;2023-05-16T03:36:25;982.5;;;13.4;51.1
62980;BME280;49075;53.988;27.678;2023-05-16T03:41:25;982.4;;;13.5;50.9
62980;BME280;49075;53.988;27.678;2023-05-16T03:46:35;982.4;;;13.6;50.8
62980;BME280;49075;53.988;27.678;2023-05-16T03:52:11;982.3;;;13.4;51.2
62980;BME280;49075;53.988;27.678;2023-05-16T03:56:25;982.3;;;13.5;51.2
62980;BME280;49075;53.988;27.678;2023-05-16T04:01:25;982.6;;;13.3;51.8
62980;BME280;49075;53.988;27.678;2023-05-16T04:06:37;982.6;;;13.3;51.6
62980;BME280;49075;53.988;27.678;2023-05-16T04:11:31;982.4;;;13.3;52
62980;BME280;49075;53.988;27.678;2023-05-16T04:16:35;982.4;;;13.3;51.8
62980;BME280;49075;53.988;27.678;2023-05-16T04:22:03;982.6;;;13.1;52.4
62980;BME280;49075;53.988;27.678;2023-05-16T04:26:31;982.6;;;13.2;52
62980;BME280;49075;53.988;27.678;2023-05-16T04:31:25;982.6;;;13.2;52.3
62980;BME280;49075;53.988;27.678;2023-05-16T04:36:47;982.5;;;13.4;51.7
62980;BME280;49075;53.988;27.678;2023-05-16T04:41:35;982.5;;;13.3;52.1
62980;BME280;49075;53.988;27.678;2023-05-16T04:46:51;982.6;;;13.4;52.1
62980;BME280;49075;53.988;27.678;2023-05-16T04:51:43;982.5;;;13.4;52.1
62980;BME280;49075;53.988;27.678;2023-05-16T04:56:49;982.6;;;13.4;52.5
62980;BME280;49075;53.988;27.678;2023-05-16T05:01:37;982.6;;;13.4;52.4
62980;BME280;49075;53.988;27.678;2023-05-16T05:06:31;982.6;;;13.4;52.5
62980;BME280;49075;53.988;27.678;2023-05-16T05:11:25;982.6;;;13.3;52.9
62980;BME280;49075;53.988;27.678;2023-05-16T05:16:49;982.5;;;13.5;52.4
62980;BME280;49075;53.988;27.678;2023-05-16T05:21:37;982.6;;;13.5;52.3
62980;BME280;49075;53.988;27.678;2023-05-16T05:26:25;982.6;;;13.6;51.9
62980;BME280;49075;53.988;27.678;2023-05-16T05:31:25;982.6;;;13.8;51.6
62980;BME280;49075;53.988;27.678;2023-05-16T05:36:25;982.7;;;13.9;51.2
62980;BME280;49075;53.988;27.678;2023-05-16T05:41:35;982.7;;;13.8;51.5
62980;BME280;49075;53.988;27.678;2023-05-16T05:46:27;982.6;;;14;51
62980;BME280;49075;53.988;27.678;2023-05-16T05:51:43;982.7;;;13.7;51.9
62980;BME280;49075;53.988;27.678;2023-05-16T05:56:41;982.8;;;13.6;52.1
62980;BME280;49075;53.988;27.678;2023-05-16T06:01:39;982.8;;;13.4;52.8
62980;BME280;49075;53.988;27.678;2023-05-16T06:06:39;982.7;;;13.3;52.9
62980;BME280;49075;53.988;27.678;2023-05-16T06:11:27;982.8;;;13.2;53.4
62980;BME280;49075;53.988;27.678;2023-05-16T06:16:53;982.8;;;13.4;53.1
62980;BME280;49075;53.988;27.678;2023-05-16T06:21:37;982.8;;;13.5;53.1
62980;BME280;49075;53.988;27.678;2023-05-16T06:26:45;982.8;;;13.5;52.9
62980;BME280;49075;53.988;27.678;2023-05-16T06:31:27;982.9;;;13.4;53.1
62980;BME280;49075;53.988;27.678;2023-05-16T06:36:27;982.8;;;13.6;53.1
62980;BME280;49075;53.988;27.678;2023-05-16T06:41:25;982.9;;;13.6;53.6
62980;BME280;49075;53.988;27.678;2023-05-16T06:46:35;982.9;;;13.2;55.6
62980;BME280;49075;53.988;27.678;2023-05-16T06:51:35;982.9;;;13.1;56.4
62980;BME280;49075;53.988;27.678;2023-05-16T06:56:39;983;;;13.3;56
62980;BME280;49075;53.988;27.678;2023-05-16T07:01:41;983.1;;;13.1;57.4
62980;BME280;49075;53.988;27.678;2023-05-16T07:06:25;983.1;;;13.1;57.1
62980;BME280;49075;53.988;27.678;2023-05-16T07:11:53;983.1;;;12.9;57.8
62980;BME280;49075;53.988;27.678;2023-05-16T07:16:25;983.1;;;12.9;57.7
62980;BME280;49075;53.988;27.678;2023-05-16T07:21:25;983.1;;;12.7;59.3
62980;BME280;49075;53.988;27.678;2023-05-16T07:26:47;983.1;;;13;58.3
62980;BME280;49075;53.988;27.678;2023-05-16T07:31:25;983.2;;;12.7;58.7
62980;BME280;49075;53.988;27.678;2023-05-16T07:36:39;983.2;;;12.8;58.3
62980;BME280;49075;53.988;27.678;2023-05-16T07:41:35;983.4;;;12.4;60.1
62980;BME280;49075;53.988;27.678;2023-05-16T07:46:35;983.6;;;12.1;62.7
62980;BME280;49075;53.988;27.678;2023-05-16T07:51:39;983.6;;;11.9;64.3
62980;BME280;49075;53.988;27.678;2023-05-16T07:56:25;983.6;;;11.9;64.7
62980;BME280;49075;53.988;27.678;2023-05-16T08:01:35;983.6;;;11.7;65.1
62980;BME280;49075;53.988;27.678;2023-05-16T08:06:25;983.6;;;11.6;66.9
62980;BME280;49075;53.988;27.678;2023-05-16T08:12:03;983.5;;;11.5;68.1
62980;BME280;49075;53.988;27.678;2023-05-16T08:16:43;983.3;;;11.7;66.8
62980;BME280;49075;53.988;27.678;2023-05-16T08:21:39;983.2;;;11.8;66.6
62980;BME280;49075;53.988;27.678;2023-05-16T08:26:41;983.1;;;12.1;65
62980;BME280;49075;53.988;27.678;2023-05-16T08:31:38;983.1;;;12.2;64.7
62980;BME280;49075;53.988;27.678;2023-05-16T08:37:13;983.3;;;12.5;63.5
62980;BME280;49075;53.988;27.678;2023-05-16T08:41:33;983.5;;;12.3;63.4
62980;BME280;49075;53.988;27.678;2023-05-16T08:46:28;983.3;;;12.4;62.8
62980;BME280;49075;53.988;27.678;2023-05-16T08:51:39;983.4;;;12.3;62.8
62980;BME280;49075;53.988;27.678;2023-05-16T08:56:37;983.4;;;12.5;62.6
62980;BME280;49075;53.988;27.678;2023-05-16T09:01:27;983.5;;;12.4;62.6
62980;BME280;49075;53.988;27.678;2023-05-16T09:06:39;983.6;;;12.2;63.6
62980;BME280;49075;53.988;27.678;2023-05-16T09:11:27;983.5;;;12.3;63.5
62980;BME280;49075;53.988;27.678;2023-05-16T09:16:43;983.5;;;12.4;63.2
62980;BME280;49075;53.988;27.678;2023-05-16T09:21:39;983.4;;;12.4;63.5
62980;BME280;49075;53.988;27.678;2023-05-16T09:26:27;983.4;;;12.3;64.3
62980;BME280;49075;53.988;27.678;2023-05-16T09:31:28;983.4;;;12.4;63.8
62980;BME280;49075;53.988;27.678;2023-05-16T09:36:52;983.4;;;12.7;63.2
62980;BME280;49075;53.988;27.678;2023-05-16T09:41:37;983.4;;;12.8;63.1
62980;BME280;49075;53.988;27.678;2023-05-16T09:46:49;983.4;;;12.9;63.1
62980;BME280;49075;53.988;27.678;2023-05-16T09:51:27;983.4;;;13;63.1
62980;BME280;49075;53.988;27.678;2023-05-16T09:56:46;983.4;;;12.9;63.6
62980;BME280;49075;53.988;27.678;2023-05-16T10:01:41;983.3;;;13.6;61.8
62980;BME280;49075;53.988;27.678;2023-05-16T10:06:33;983.4;;;13.7;61.3
62980;BME280;49075;53.988;27.678;2023-05-16T10:11:38;983.4;;;13.8;61
62980;BME280;49075;53.988;27.678;2023-05-16T10:16:27;983.5;;;13.4;62.3
62980;BME280;49075;53.988;27.678;2023-05-16T10:21:28;983.3;;;13.7;61.7
62980;BME280;49075;53.988;27.678;2023-05-16T10:26:33;983.3;;;14.1;60.6
62980;BME280;49075;53.988;27.678;2023-05-16T10:31:43;983.4;;;14.1;60.7
62980;BME280;49075;53.988;27.678;2023-05-16T10:36:27;983.5;;;13.8;61.4
62980;BME280;49075;53.988;27.678;2023-05-16T10:41:41;983.6;;;13.8;61.6
62980;BME280;49075;53.988;27.678;2023-05-16T10:46:49;983.5;;;14;61.2
62980;BME280;49075;53.988;27.678;2023-05-16T10:51:43;983.6;;;13.9;61.2
62980;BME280;49075;53.988;27.678;2023-05-16T10:56:27;983.6;;;13.7;61.9
62980;BME280;49075;53.988;27.678;2023-05-16T11:01:28;983.7;;;14;61.2
62980;BME280;49075;53.988;27.678;2023-05-16T11:06:44;983.7;;;13.9;61.7
62980;BME280;49075;53.988;27.678;2023-05-16T11:11:42;983.6;;;13.9;61.7
62980;BME280;49075;53.988;27.678;2023-05-16T11:16:44;983.7;;;13.9;61.7
62980;BME280;49075;53.988;27.678;2023-05-16T11:22:41;983.7;;;14;61.4
62980;BME280;49075;53.988;27.678;2023-05-16T11:26:41;983.6;;;14.3;60.9
62980;BME280;49075;53.988;27.678;2023-05-16T11:31:27;983.7;;;14.5;60.5
62980;BME280;49075;53.988;27.678;2023-05-16T11:36:49;983.7;;;14.5;60.8
62980;BME280;49075;53.988;27.678;2023-05-16T11:41:27;983.7;;;14.6;60.4
62980;BME280;49075;53.988;27.678;2023-05-16T11:46:27;983.7;;;15;59.6
62980;BME280;49075;53.988;27.678;2023-05-16T11:51:27;983.7;;;15.6;58.3
62980;BME280;49075;53.988;27.678;2023-05-16T11:56:39;983.6;;;16.2;57.1
62980;BME280;49075;53.988;27.678;2023-05-16T12:01:30;983.6;;;16.5;56.2
62980;BME280;49075;53.988;27.678;2023-05-16T12:06:59;983.6;;;16.4;56.1
62980;BME280;49075;53.988;27.678;2023-05-16T12:11:27;983.7;;;16.5;55.8
62980;BME280;49075;53.988;27.678;2023-05-16T12:16:28;983.7;;;16.2;56.2
62980;BME280;49075;53.988;27.678;2023-05-16T12:21:27;983.7;;;16;56.6
62980;BME280;49075;53.988;27.678;2023-05-16T12:26:40;983.8;;;15.9;56.8
62980;BME280;49075;53.988;27.678;2023-05-16T12:31:27;983.8;;;16;56.5
62980;BME280;49075;53.988;27.678;2023-05-16T12:36:30;983.9;;;16;56.4
62980;BME280;49075;53.988;27.678;2023-05-16T12:41:28;983.9;;;16.1;56
62980;BME280;49075;53.988;27.678;2023-05-16T12:46:40;983.8;;;16.5;55.1
62980;BME280;49075;53.988;27.678;2023-05-16T12:51:55;983.8;;;16.5;54.9
62980;BME280;49075;53.988;27.678;2023-05-16T12:56:27;983.8;;;16.4;54.1
62980;BME280;49075;53.988;27.678;2023-05-16T13:01:37;983.8;;;16.5;53.5
62980;BME280;49075;53.988;27.678;2023-05-16T13:06:53;983.8;;;16.2;53.9
62980;BME280;49075;53.988;27.678;2023-05-16T13:11:39;983.9;;;16;54.6
62980;BME280;49075;53.988;27.678;2023-05-16T13:16:27;983.9;;;16.1;54.8
62980;BME280;49075;53.988;27.678;2023-05-16T13:21:37;983.9;;;16.3;54.5
62980;BME280;49075;53.988;27.678;2023-05-16T13:26:27;983.9;;;16.6;54.2
62980;BME280;49075;53.988;27.678;2023-05-16T13:31:37;984;;;17;53.7
62980;BME280;49075;53.988;27.678;2023-05-16T13:36:27;984;;;17.4;52.6
62980;BME280;49075;53.988;27.678;2023-05-16T13:41:49;983.9;;;17.1;52.6
62980;BME280;49075;53.988;27.678;2023-05-16T13:46:27;984;;;17.2;52.3
62980;BME280;49075;53.988;27.678;2023-05-16T13:51:27;984;;;17;53.5
62980;BME280;49075;53.988;27.678;2023-05-16T13:56:27;984;;;16.8;54.3
62980;BME280;49075;53.988;27.678;2023-05-16T14:01:53;984;;;16.8;54
62980;BME280;49075;53.988;27.678;2023-05-16T14:06:33;984;;;17;53.8
62980;BME280;49075;53.988;27.678;2023-05-16T14:11:37;984;;;17;53.9
62980;BME280;49075;53.988;27.678;2023-05-16T14:16:37;984.1;;;17.1;53.7
62980;BME280;49075;53.988;27.678;2023-05-16T14:21:27;984.1;;;17.3;53.4
62980;BME280;49075;53.988;27.678;2023-05-16T14:26:38;984.1;;;17.2;53.7
62980;BME280;49075;53.988;27.678;2023-05-16T14:31:38;984.1;;;17.2;53.7
62980;BME280;49075;53.988;27.678;2023-05-16T14:36:34;984.2;;;17.1;53.9
62980;BME280;49075;53.988;27.678;2023-05-16T14:41:40;984.2;;;17;54.3
62980;BME280;49075;53.988;27.678;2023-05-16T14:46:42;984.1;;;17.4;53.5
62980;BME280;49075;53.988;27.678;2023-05-16T14:51:28;984.1;;;17.5;53.1
62980;BME280;49075;53.988;27.678;2023-05-16T14:56:28;984.1;;;17.4;53.2
62980;BME280;49075;53.988;27.678;2023-05-16T15:01:28;984.1;;;17.4;53.3
62980;BME280;49075;53.988;27.678;2023-05-16T15:06:46;984;;;17.5;53
62980;BME280;49075;53.988;27.678;2023-05-16T15:11:52;984.1;;;17.3;53.3
62980;BME280;49075;53.988;27.678;2023-05-16T15:16:54;984.1;;;17.3;53.4
62980;BME280;49075;53.988;27.678;2023-05-16T15:21:48;984.1;;;17.1;53.6
62980;BME280;49075;53.988;27.678;2023-05-16T15:26:40;984.2;;;17.2;53.6
62980;BME280;49075;53.988;27.678;2023-05-16T15:31:40;984.3;;;17.2;53.7
62980;BME280;49075;53.988;27.678;2023-05-16T15:36:34;984.3;;;17.4;53.1
62980;BME280;49075;53.988;27.678;2023-05-16T15:41:28;984.3;;;17.4;52.9
62980;BME280;49075;53.988;27.678;2023-05-16T15:46:50;984.4;;;17.5;52.9
62980;BME280;49075;53.988;27.678;2023-05-16T15:51:28;984.3;;;17.2;53.6
62980;BME280;49075;53.988;27.678;2023-05-16T15:56:28;984.3;;;17.4;53.3
62980;BME280;49075;53.988;27.678;2023-05-16T16:01:38;984.4;;;17.4;53.3
62980;BME280;49075;53.988;27.678;2023-05-16T16:06:28;984.5;;;17.3;53.7
62980;BME280;49075;53.988;27.678;2023-05-16T16:11:28;984.5;;;17.1;54.3
62980;BME280;49075;53.988;27.678;2023-05-16T16:16:40;984.5;;;17.3;53.8
62980;BME280;49075;53.988;27.678;2023-05-16T16:21:28;984.5;;;17.3;54.1
62980;BME280;49075;53.988;27.678;2023-05-16T16:26:28;984.6;;;17.2;54.2
62980;BME280;49075;53.988;27.678;2023-05-16T16:31:32;984.6;;;17.2;54.4
62980;BME280;49075;53.988;27.678;2023-05-16T16:36:38;984.6;;;17.2;54.4
62980;BME280;49075;53.988;27.678;2023-05-16T16:41:48;984.5;;;17.2;54.5
62980;BME280;49075;53.988;27.678;2023-05-16T16:46:26;984.6;;;17.2;54.7
62980;BME280;49075;53.988;27.678;2023-05-16T16:51:48;984.5;;;17;55.3
62980;BME280;49075;53.988;27.678;2023-05-16T16:57:00;984.6;;;17.1;55
62980;BME280;49075;53.988;27.678;2023-05-16T17:01:44;984.6;;;17.2;54.8
62980;BME280;49075;53.988;27.678;2023-05-16T17:06:28;984.6;;;17.2;55
62980;BME280;49075;53.988;27.678;2023-05-16T17:11:40;984.7;;;17.2;55.1
62980;BME280;49075;53.988;27.678;2023-05-16T17:16:28;984.8;;;17.3;55.1
62980;BME280;49075;53.988;27.678;2023-05-16T17:21:28;984.8;;;17.2;55.7
62980;BME280;49075;53.988;27.678;2023-05-16T17:26:28;984.8;;;17.1;55.6
62980;BME280;49075;53.988;27.678;2023-05-16T17:31:38;984.9;;;17.2;55.4
62980;BME280;49075;53.988;27.678;2023-05-16T17:36:28;984.8;;;17.2;54.9
62980;BME280;49075;53.988;27.678;2023-05-16T17:41:28;984.9;;;17.3;53.3
62980;BME280;49075;53.988;27.678;2023-05-16T17:46:28;985;;;17.4;52.4
62980;BME280;49075;53.988;27.678;2023-05-16T17:51:48;985;;;17.5;51.4
62980;BME280;49075;53.988;27.678;2023-05-16T17:56:29;985;;;17.4;51
62980;BME280;49075;53.988;27.678;2023-05-16T18:02:00;985.1;;;17.3;51.7
62980;BME280;49075;53.988;27.678;2023-05-16T18:06:40;985.1;;;17.1;51.5
62980;BME280;49075;53.988;27.678;2023-05-16T18:11:38;985.2;;;16.9;52.1
62980;BME280;49075;53.988;27.678;2023-05-16T18:16:42;985.3;;;16.6;55.3
62980;BME280;49075;53.988;27.678;2023-05-16T18:21:55;985.3;;;16.4;56.8
62980;BME280;49075;53.988;27.678;2023-05-16T18:26:28;985.4;;;16.2;58
62980;BME280;49075;53.988;27.678;2023-05-16T18:31:40;985.5;;;16;58.5
62980;BME280;49075;53.988;27.678;2023-05-16T18:36:28;985.5;;;15.8;60.1
62980;BME280;49075;53.988;27.678;2023-05-16T18:41:28;985.6;;;15.7;59.8
62980;BME280;49075;53.988;27.678;2023-05-16T18:46:36;985.6;;;15.6;60.6
62980;BME280;49075;53.988;27.678;2023-05-16T18:51:28;985.6;;;15.6;60.1
62980;BME280;49075;53.988;27.678;2023-05-16T18:56:50;985.6;;;15.5;61.2
62980;BME280;49075;53.988;27.678;2023-05-16T19:01:42;985.7;;;15.4;60.9
62980;BME280;49075;53.988;27.678;2023-05-16T19:06:58;985.7;;;15.4;61.7
62980;BME280;49075;53.988;27.678;2023-05-16T19:11:52;985.7;;;15.4;61
62980;BME280;49075;53.988;27.678;2023-05-16T19:16:54;985.7;;;15.3;61.8
62980;BME280;49075;53.988;27.678;2023-05-16T19:21:28;985.7;;;15.2;61.7
62980;BME280;49075;53.988;27.678;2023-05-16T19:26:51;985.8;;;15.1;62.3
62980;BME280;49075;53.988;27.678;2023-05-16T19:32:12;985.7;;;14.9;62.6
62980;BME280;49075;53.988;27.678;2023-05-16T19:36:44;985.7;;;14.9;63
62980;BME280;49075;53.988;27.678;2023-05-16T19:41:28;985.7;;;14.8;62.9
62980;BME280;49075;53.988;27.678;2023-05-16T19:46:28;985.7;;;14.6;64.3
62980;BME280;49075;53.988;27.678;2023-05-16T19:51:28;985.7;;;14.4;64.3
62980;BME280;49075;53.988;27.678;2023-05-16T19:56:28;985.7;;;14.3;65.4
62980;BME280;49075;53.988;27.678;2023-05-16T20:01:44;985.8;;;14.3;64.7
62980;BME280;49075;53.988;27.678;2023-05-16T20:06:28;985.8;;;14.2;65.3
62980;BME280;49075;53.988;27.678;2023-05-16T20:12:02;985.9;;;14.2;64.6
62980;BME280;49075;53.988;27.678;2023-05-16T20:16:28;986;;;14.3;64.9
62980;BME280;49075;53.988;27.678;2023-05-16T20:21:40;986;;;14.3;64.1
62980;BME280;49075;53.988;27.678;2023-05-16T20:26:28;986;;;14.3;62.9
62980;BME280;49075;53.988;27.678;2023-05-16T20:31:54;986;;;14.3;62.1
62980;BME280;49075;53.988;27.678;2023-05-16T20:36:28;986.1;;;14.3;61.8
62980;BME280;49075;53.988;27.678;2023-05-16T20:41:40;986.1;;;14.3;61.4
62980;BME280;49075;53.988;27.678;2023-05-16T20:46:44;986.1;;;14.2;61.2
62980;BME280;49075;53.988;27.678;2023-05-16T20:51:38;986.2;;;14.2;60.9
62980;BME280;49075;53.988;27.678;2023-05-16T20:56:50;986.1;;;14.1;61
62980;BME280;49075;53.988;27.678;2023-05-16T21:01:28;986.1;;;14.1;61
62980;BME280;49075;53.988;27.678;2023-05-16T21:06:28;986.1;;;14;61.1
62980;BME280;49075;53.988;27.678;2023-05-16T21:11:28;986.1;;;14;61.1
62980;BME280;49075;53.988;27.678;2023-05-16T21:16:34;986;;;14;61.2
62980;BME280;49075;53.988;27.678;2023-05-16T21:21:38;986;;;14;61.2
62980;BME280;49075;53.988;27.678;2023-05-16T21:26:54;986.1;;;13.8;61.6
62980;BME280;49075;53.988;27.678;2023-05-16T21:31:28;986.1;;;13.8;61.7
62980;BME280;49075;53.988;27.678;2023-05-16T21:36:28;986.1;;;13.6;62.3
62980;BME280;49075;53.988;27.678;2023-05-16T21:41:40;986.1;;;13.5;62.5
62980;BME280;49075;53.988;27.678;2023-05-16T21:46:48;986.1;;;13.3;63.1
62980;BME280;49075;53.988;27.678;2023-05-16T21:51:42;986.2;;;13.3;63
62980;BME280;49075;53.988;27.678;2023-05-16T21:56:50;986.2;;;13.2;63.4
62980;BME280;49075;53.988;27.678;2023-05-16T22:01:34;986.2;;;13.1;63.4
62980;BME280;49075;53.988;27.678;2023-05-16T22:06:44;986.2;;;13.1;63.7
62980;BME280;49075;53.988;27.678;2023-05-16T22:11:40;986.3;;;12.9;63.9
62980;BME280;49075;53.988;27.678;2023-05-16T22:16:28;986.3;;;12.8;64.6
62980;BME280;49075;53.988;27.678;2023-05-16T22:21:54;986.3;;;12.7;64.4
62980;BME280;49075;53.988;27.678;2023-05-16T22:26:28;986.3;;;12.7;64.7
62980;BME280;49075;53.988;27.678;2023-05-16T22:31:38;986.3;;;12.6;64.6
62980;BME280;49075;53.988;27.678;2023-05-16T22:36:38;986.4;;;12.5;65.2
62980;BME280;49075;53.988;27.678;2023-05-16T22:41:40;986.4;;;12.4;65.1
62980;BME280;49075;53.988;27.678;2023-05-16T22:46:50;986.4;;;12.3;65.5
62980;BME280;49075;53.988;27.678;2023-05-16T22:51:28;986.4;;;12.2;65.5
62980;BME280;49075;53.988;27.678;2023-05-16T22:57:14;986.5;;;12.1;65.7
62980;BME280;49075;53.988;27.678;2023-05-16T23:01:54;986.5;;;12;65.9
62980;BME280;49075;53.988;27.678;2023-05-16T23:06:46;986.5;;;11.8;66.4
62980;BME280;49075;53.988;27.678;2023-05-16T23:11:44;986.5;;;11.8;66.3
62980;BME280;49075;53.988;27.678;2023-05-16T23:16:42;986.5;;;11.8;66.5
62980;BME280;49075;53.988;27.678;2023-05-16T23:21:52;986.6;;;11.7;66.5
62980;BME280;49075;53.988;27.678;2023-05-16T23:26:40;986.6;;;11.7;66.7
62980;BME280;49075;53.988;27.678;2023-05-16T23:31:28;986.6;;;11.6;66.6
62980;BME280;49075;53.988;27.678;2023-05-16T23:36:40;986.6;;;11.5;67.1
62980;BME280;49075;53.988;27.678;2023-05-16T23:41:38;986.6;;;11.4;67
62980;BME280;49075;53.988;27.678;2023-05-16T23:46:48;986.7;;;11.4;67.2
62980;BME280;49075;53.988;27.678;2023-05-16T23:51:40;986.7;;;11.3;67.1
62980;BME280;49075;53.988;27.678;2023-05-16T23:56:38;986.7;;;11.3;67.3
